Terminal Aerodrome Forecast
Issued by NWS

Home | Current Version | Previous Version | Text Only | Print | Product List | Glossary On
Versions: 1 2 3 4 5 6 7 8 9 10 11 12 13 14 15 16
000
FTUS46 KMFR 190544
TAFRBG
TAF
KRBG 190544Z 1906/2006 34005KT P6SM SKC
     FM191300 01007KT P6SM SCT008 BKN015
     FM191600 36010G17KT P6SM SKC
     FM192000 01015G22KT P6SM SKC
     FM200300 36008KT P6SM SKC=

USA.gov is the U.S. government's official web portal to all federal, state and local government web resources and services.